createdAt,value
2019-03-19T00:00:02.818Z,56.70
2019-03-19T00:02:32.025Z,59.63
2019-03-19T00:05:01.187Z,54.53
2019-03-19T00:07:30.341Z,54.50
2019-03-19T00:09:59.546Z,59.70
2019-03-19T00:12:28.678Z,52.90
2019-03-19T00:14:57.871Z,55.13
2019-03-19T00:17:27.017Z,44.30
2019-03-19T00:19:56.174Z,42.13
2019-03-19T00:22:25.872Z,47.80
2019-03-19T00:24:55.439Z,51.03
2019-03-19T00:27:24.577Z,53.50
2019-03-19T00:29:53.786Z,54.13
2019-03-19T00:32:23.009Z,53.87
2019-03-19T00:34:52.162Z,51.23
2019-03-19T00:37:21.338Z,54.30
2019-03-19T00:39:50.494Z,51.50
2019-03-19T00:42:19.809Z,47.90
2019-03-19T00:44:49.002Z,52.10
2019-03-19T00:47:18.154Z,53.30
2019-03-19T00:49:47.314Z,51.00
2019-03-19T00:52:16.613Z,54.50
2019-03-19T00:54:45.907Z,48.17
2019-03-19T00:57:15.049Z,45.63
2019-03-19T00:59:44.234Z,47.27
2019-03-19T01:02:13.467Z,41.77
2019-03-19T01:04:42.698Z,46.40
2019-03-19T01:07:11.911Z,43.97
2019-03-19T01:09:41.121Z,47.50
2019-03-19T01:12:10.267Z,47.60
2019-03-19T01:14:39.446Z,46.47
2019-03-19T01:17:08.674Z,45.97
2019-03-19T01:19:37.810Z,44.03
2019-03-19T01:22:06.985Z,40.30
2019-03-19T01:24:36.122Z,38.03
2019-03-19T01:27:05.280Z,40.60
2019-03-19T01:29:34.453Z,40.80
2019-03-19T01:32:03.663Z,47.67
2019-03-19T01:34:32.925Z,55.57
2019-03-19T01:37:02.151Z,61.93
2019-03-19T01:39:31.309Z,49.53
2019-03-19T01:42:00.632Z,54.57
2019-03-19T01:44:29.845Z,48.20
2019-03-19T01:46:59.100Z,51.33
2019-03-19T01:49:28.327Z,53.07
2019-03-19T01:51:57.473Z,51.47
2019-03-19T01:54:26.626Z,44.47
2019-03-19T01:56:55.803Z,50.33
2019-03-19T01:59:24.949Z,47.70
2019-03-19T02:01:54.088Z,47.03
2019-03-19T02:04:23.233Z,49.50
2019-03-19T02:06:52.457Z,44.37
2019-03-19T02:09:21.618Z,42.17
2019-03-19T02:11:50.785Z,44.63
2019-03-19T02:14:20.134Z,39.80
2019-03-19T02:16:49.291Z,43.83
2019-03-19T02:19:18.429Z,42.97
2019-03-19T02:21:47.598Z,41.10
2019-03-19T02:24:16.809Z,47.87
2019-03-19T02:26:45.960Z,44.70
2019-03-19T02:29:15.089Z,41.27
2019-03-19T02:31:44.337Z,45.27
2019-03-19T02:34:13.486Z,44.17
2019-03-19T02:36:42.648Z,39.80
2019-03-19T02:39:11.894Z,43.90
2019-03-19T02:41:41.147Z,39.80
2019-03-19T02:44:10.366Z,39.73
2019-03-19T02:46:39.528Z,40.67
2019-03-19T02:49:08.819Z,37.60
2019-03-19T02:51:38.017Z,45.27
2019-03-19T02:54:07.238Z,44.17
2019-03-19T02:56:36.378Z,41.20
2019-03-19T02:59:05.563Z,38.13
2019-03-19T03:01:34.829Z,43.47
2019-03-19T03:04:04.016Z,36.23
2019-03-19T03:06:33.173Z,40.30
2019-03-19T03:09:02.480Z,35.77
2019-03-19T03:11:31.643Z,39.13
2019-03-19T03:14:00.795Z,32.63
2019-03-19T03:16:29.997Z,35.17
2019-03-19T03:18:59.186Z,36.87
2019-03-19T03:21:28.375Z,31.63
2019-03-19T03:23:57.768Z,32.23
2019-03-19T03:26:27.034Z,30.27
2019-03-19T03:28:56.189Z,27.77
2019-03-19T03:31:25.421Z,31.37
2019-03-19T03:33:54.662Z,33.73
2019-03-19T03:36:23.915Z,26.23
2019-03-19T03:38:53.124Z,24.30
2019-03-19T03:41:22.265Z,33.13
2019-03-19T03:43:51.443Z,28.70
2019-03-19T03:46:20.608Z,29.60
2019-03-19T03:48:49.837Z,32.53
2019-03-19T03:51:18.974Z,29.73
2019-03-19T03:53:48.159Z,28.00
2019-03-19T03:56:17.767Z,31.77
2019-03-19T03:59:00.019Z,32.43
2019-03-19T04:01:17.874Z,34.23
2019-03-19T04:03:47.082Z,37.30
2019-03-19T04:06:16.370Z,33.60
2019-03-19T04:08:45.650Z,31.90
2019-03-19T04:11:15.425Z,36.30
2019-03-19T04:13:44.559Z,31.57
2019-03-19T04:16:13.779Z,32.03
2019-03-19T04:18:43.042Z,33.90
2019-03-19T04:21:12.257Z,30.73
2019-03-19T04:23:41.522Z,35.83
2019-03-19T04:26:10.683Z,32.73
2019-03-19T04:28:39.919Z,36.30
2019-03-19T04:31:09.093Z,35.50
2019-03-19T04:33:38.414Z,40.57
2019-03-19T04:36:07.623Z,37.10
2019-03-19T04:38:36.763Z,37.50
2019-03-19T04:41:05.983Z,37.97
2019-03-19T04:43:35.127Z,42.50
2019-03-19T04:46:04.310Z,43.40
2019-03-19T04:48:33.498Z,44.80
2019-03-19T04:51:02.722Z,39.13
2019-03-19T04:53:31.865Z,44.13
2019-03-19T04:56:01.028Z,41.37
2019-03-19T04:58:30.169Z,38.67
2019-03-19T05:00:59.442Z,36.93
2019-03-19T05:03:28.585Z,33.30
2019-03-19T05:05:59.572Z,40.40
2019-03-19T05:08:28.613Z,31.13
2019-03-19T05:10:57.750Z,36.03
2019-03-19T05:13:26.917Z,32.87
2019-03-19T05:15:56.056Z,38.27
2019-03-19T05:18:25.281Z,43.40
2019-03-19T05:20:54.442Z,36.97
2019-03-19T05:23:23.645Z,38.47
2019-03-19T05:25:52.803Z,35.63
2019-03-19T05:28:21.950Z,35.37
2019-03-19T05:30:51.125Z,33.43
2019-03-19T05:33:20.335Z,35.83
2019-03-19T05:35:49.467Z,42.37
2019-03-19T05:38:18.622Z,36.23
2019-03-19T05:40:47.800Z,36.77
2019-03-19T05:43:17.122Z,35.03
2019-03-19T05:45:46.512Z,31.00
2019-03-19T05:48:15.734Z,39.17
2019-03-19T05:50:45.049Z,34.57
2019-03-19T05:53:14.198Z,32.17
2019-03-19T05:55:43.345Z,27.57
2019-03-19T05:58:12.537Z,32.77
2019-03-19T06:00:41.750Z,29.60
2019-03-19T06:03:10.894Z,37.23
2019-03-19T06:05:40.095Z,38.10
2019-03-19T06:08:09.375Z,40.50
2019-03-19T06:10:38.546Z,39.23
2019-03-19T06:13:07.759Z,37.47
2019-03-19T06:15:36.913Z,32.60
2019-03-19T06:18:06.086Z,33.10
2019-03-19T06:20:35.264Z,36.63
2019-03-19T06:23:05.506Z,32.87
2019-03-19T06:25:34.747Z,30.03
2019-03-19T06:28:05.453Z,34.30
2019-03-19T06:30:34.640Z,30.13
2019-03-19T06:33:03.885Z,29.77
2019-03-19T06:35:33.074Z,33.50
2019-03-19T06:38:02.437Z,26.40
2019-03-19T06:40:31.581Z,34.80
2019-03-19T06:43:00.942Z,35.07
2019-03-19T06:45:30.110Z,32.57
2019-03-19T06:47:59.337Z,31.93
2019-03-19T06:50:28.514Z,31.37
2019-03-19T06:52:57.706Z,34.57
2019-03-19T06:55:27.003Z,34.33
2019-03-19T06:57:56.294Z,33.53
2019-03-19T07:00:25.739Z,33.33
2019-03-19T07:02:55.166Z,36.43
2019-03-19T07:05:24.352Z,34.33
2019-03-19T07:07:53.531Z,30.87
2019-03-19T07:10:22.763Z,28.27
2019-03-19T07:12:51.925Z,37.17
2019-03-19T07:15:21.172Z,30.33
2019-03-19T07:17:50.766Z,29.83
2019-03-19T07:20:23.119Z,29.70
2019-03-19T07:22:52.435Z,33.60
2019-03-19T07:25:21.610Z,29.60
2019-03-19T07:27:50.841Z,33.17
2019-03-19T07:30:24.877Z,27.10
2019-03-19T07:32:54.234Z,29.67
2019-03-19T07:35:24.790Z,26.67
2019-03-19T07:37:54.792Z,30.20
2019-03-19T07:40:24.597Z,30.57
2019-03-19T07:42:59.900Z,29.63
2019-03-19T07:45:32.332Z,28.97
2019-03-19T07:48:01.657Z,24.87
2019-03-19T07:50:31.240Z,21.53
2019-03-19T07:53:00.470Z,27.37
2019-03-19T07:55:30.315Z,22.00
2019-03-19T07:57:59.614Z,25.17
2019-03-19T08:00:29.202Z,22.07
2019-03-19T08:02:58.463Z,28.90
2019-03-19T08:05:32.916Z,18.37
2019-03-19T08:07:58.528Z,19.10
2019-03-19T08:10:27.681Z,25.03
2019-03-19T08:12:56.903Z,20.33
2019-03-19T08:15:26.079Z,20.30
2019-03-19T08:17:55.314Z,14.93
2019-03-19T08:20:24.557Z,14.77
2019-03-19T08:22:53.760Z,11.47
2019-03-19T08:25:22.547Z,14.30
2019-03-19T08:27:51.802Z,12.43
2019-03-19T08:30:20.937Z,11.10
2019-03-19T08:32:50.094Z,18.03
2019-03-19T08:35:19.222Z,25.17
2019-03-19T08:37:48.382Z,16.53
2019-03-19T08:40:20.020Z,19.37
2019-03-19T08:42:49.178Z,23.47
2019-03-19T08:45:18.442Z,27.70
2019-03-19T08:47:47.626Z,20.63
2019-03-19T08:50:17.212Z,25.73
2019-03-19T08:52:46.370Z,17.43
2019-03-19T08:55:16.692Z,18.47
2019-03-19T08:57:45.924Z,19.67
2019-03-19T09:00:16.897Z,16.97
2019-03-19T09:02:46.083Z,17.60
2019-03-19T09:05:16.912Z,16.97
2019-03-19T09:07:46.119Z,18.83
2019-03-19T09:10:15.304Z,18.13
2019-03-19T09:12:51.361Z,19.13
2019-03-19T09:15:20.701Z,16.17
2019-03-19T09:17:51.151Z,13.07
2019-03-19T09:20:21.396Z,16.97
2019-03-19T09:22:53.366Z,15.93
2019-03-19T09:25:22.789Z,17.67
2019-03-19T09:27:52.435Z,15.50
2019-03-19T09:30:21.945Z,16.00
2019-03-19T09:33:01.852Z,15.97
2019-03-19T09:35:31.105Z,19.73
2019-03-19T09:38:00.360Z,20.60
2019-03-19T09:40:29.919Z,18.30
2019-03-19T09:42:59.318Z,18.93
2019-03-19T09:45:28.732Z,24.23
2019-03-19T09:47:57.887Z,17.57
2019-03-19T09:50:27.309Z,15.40
2019-03-19T09:52:56.961Z,17.47
2019-03-19T09:55:26.660Z,14.67
2019-03-19T09:57:56.003Z,17.23
2019-03-19T10:00:25.718Z,12.90
2019-03-19T10:02:55.012Z,17.00
2019-03-19T10:05:24.417Z,9.53
2019-03-19T10:07:55.539Z,11.20
2019-03-19T10:10:24.727Z,11.60
2019-03-19T10:12:54.082Z,11.40
2019-03-19T10:15:24.056Z,15.40
2019-03-19T10:17:53.309Z,18.57
2019-03-19T10:20:22.773Z,17.00
2019-03-19T10:22:53.279Z,11.67
2019-03-19T10:25:22.461Z,18.77
2019-03-19T10:27:51.774Z,11.63
2019-03-19T10:30:20.950Z,16.40
2019-03-19T10:32:55.366Z,14.33
2019-03-19T10:35:24.689Z,11.60
2019-03-19T10:37:54.000Z,11.50
2019-03-19T10:40:23.217Z,16.60
2019-03-19T10:42:52.376Z,19.50
2019-03-19T10:45:21.947Z,16.20
2019-03-19T10:47:51.289Z,15.50
2019-03-19T10:50:20.643Z,17.60
2019-03-19T10:52:49.974Z,15.93
2019-03-19T10:55:19.406Z,10.20
2019-03-19T10:57:48.581Z,11.73
2019-03-19T11:00:21.794Z,13.30
2019-03-19T11:02:50.955Z,13.57
2019-03-19T11:05:20.359Z,14.83
2019-03-19T11:07:49.539Z,14.90
2019-03-19T11:10:19.030Z,15.70
2019-03-19T11:12:48.273Z,17.83
2019-03-19T11:15:19.001Z,12.37
2019-03-19T11:17:48.184Z,14.53
2019-03-19T11:20:17.628Z,15.27
2019-03-19T11:22:46.869Z,17.10
2019-03-19T11:25:17.706Z,17.50
2019-03-19T11:27:48.817Z,10.00
2019-03-19T11:30:20.235Z,16.03
2019-03-19T11:32:52.869Z,14.77
2019-03-19T11:35:25.757Z,17.47
2019-03-19T11:37:55.087Z,20.20
2019-03-19T11:40:25.784Z,12.13
2019-03-19T11:42:56.379Z,10.90
2019-03-19T11:45:25.680Z,11.67
2019-03-19T11:47:56.818Z,17.97
2019-03-19T11:50:26.123Z,19.97
2019-03-19T11:52:55.558Z,8.90
2019-03-19T11:55:24.790Z,13.17
2019-03-19T11:57:54.461Z,14.83
2019-03-19T12:00:30.997Z,16.43
2019-03-19T12:03:10.820Z,15.10
2019-03-19T12:05:30.486Z,21.03
2019-03-19T12:07:59.646Z,19.73
2019-03-19T12:10:28.973Z,16.00
2019-03-19T12:12:58.281Z,18.83
2019-03-19T12:15:27.545Z,15.60
2019-03-19T12:17:56.806Z,12.70
2019-03-19T12:20:26.117Z,16.73
2019-03-19T12:22:55.345Z,12.10
2019-03-19T12:25:24.551Z,16.87
2019-03-19T12:27:53.926Z,20.53
2019-03-19T12:30:26.130Z,12.80
2019-03-19T12:32:54.033Z,14.60
2019-03-19T12:35:23.889Z,17.43
2019-03-19T12:37:53.086Z,14.80
2019-03-19T12:40:22.261Z,16.30
2019-03-19T12:42:51.632Z,17.23
2019-03-19T12:45:20.982Z,17.17
2019-03-19T12:47:50.138Z,19.93
2019-03-19T12:50:19.690Z,22.17
2019-03-19T12:52:48.838Z,20.27
2019-03-19T12:55:18.037Z,20.53
2019-03-19T12:57:47.226Z,25.47
2019-03-19T13:00:18.117Z,22.60
2019-03-19T13:02:47.346Z,23.77
2019-03-19T13:05:16.675Z,18.43
2019-03-19T13:07:45.825Z,16.77
2019-03-19T13:10:19.630Z,20.70
2019-03-19T13:12:48.881Z,18.57
2019-03-19T13:15:19.261Z,17.93
2019-03-19T13:17:49.926Z,23.47
2019-03-19T13:20:19.226Z,71.03
2019-03-19T13:22:51.630Z,84.43
2019-03-19T13:25:20.890Z,31.00
2019-03-19T13:27:50.149Z,19.53
2019-03-19T13:30:19.921Z,18.93
2019-03-19T13:32:49.078Z,19.70
2019-03-19T13:35:18.302Z,16.87
2019-03-19T13:37:47.628Z,20.63
2019-03-19T13:40:17.533Z,14.30
2019-03-19T13:42:46.869Z,14.63
2019-03-19T13:45:16.120Z,12.00
2019-03-19T13:47:45.329Z,13.70
2019-03-19T13:50:15.395Z,20.23
2019-03-19T13:52:44.597Z,18.87
2019-03-19T13:55:15.234Z,11.63
2019-03-19T13:57:44.369Z,20.30
2019-03-19T14:00:14.319Z,14.97
2019-03-19T14:02:43.642Z,17.43
2019-03-19T14:05:13.063Z,11.80
2019-03-19T14:07:42.515Z,13.23
2019-03-19T14:10:12.039Z,10.20
2019-03-19T14:12:41.321Z,11.23
2019-03-19T14:15:12.828Z,15.07
2019-03-19T14:17:42.229Z,12.27
2019-03-19T14:20:13.214Z,12.57
2019-03-19T14:22:44.883Z,13.17
2019-03-19T14:25:13.681Z,14.13
2019-03-19T14:27:43.033Z,22.43
2019-03-19T14:30:14.704Z,12.33
2019-03-19T14:32:43.863Z,17.83
2019-03-19T14:35:13.262Z,16.27
2019-03-19T14:37:42.455Z,15.10
2019-03-19T14:40:13.049Z,18.77
2019-03-19T14:42:42.198Z,16.47
2019-03-19T14:45:11.577Z,25.10
2019-03-19T14:47:40.803Z,10.30
2019-03-19T14:50:11.161Z,18.63
2019-03-19T14:52:40.297Z,16.63
2019-03-19T14:55:09.840Z,13.10
2019-03-19T14:57:39.061Z,16.40
2019-03-19T15:00:11.026Z,15.37
2019-03-19T15:02:40.201Z,13.03
2019-03-19T15:05:10.169Z,15.87
2019-03-19T15:07:39.408Z,15.60
2019-03-19T15:10:11.033Z,23.33
2019-03-19T15:12:40.201Z,11.23
2019-03-19T15:15:10.390Z,9.83
2019-03-19T15:17:39.563Z,14.47
2019-03-19T15:20:11.039Z,13.50
2019-03-19T15:22:40.181Z,12.93
2019-03-19T15:25:09.533Z,10.87
2019-03-19T15:27:38.704Z,12.70
2019-03-19T15:30:08.507Z,13.30
2019-03-19T15:32:37.754Z,12.30
2019-03-19T15:35:08.163Z,15.60
2019-03-19T15:37:37.314Z,12.90
2019-03-19T15:40:07.915Z,18.70
2019-03-19T15:42:37.109Z,15.83
2019-03-19T15:45:07.110Z,16.37
2019-03-19T15:47:36.270Z,16.47
2019-03-19T15:50:06.162Z,16.07
2019-03-19T15:52:35.317Z,14.53
2019-03-19T15:55:04.791Z,12.30
2019-03-19T15:57:33.949Z,9.77
2019-03-19T16:00:03.170Z,12.53
2019-03-19T16:02:32.356Z,15.97
2019-03-19T16:05:01.566Z,20.03
2019-03-19T16:07:30.740Z,15.87
2019-03-19T16:10:00.048Z,12.53
2019-03-19T16:12:29.278Z,19.90
2019-03-19T16:14:58.457Z,22.50
2019-03-19T16:17:27.674Z,22.93
2019-03-19T16:19:56.830Z,20.00
2019-03-19T16:22:26.055Z,20.27
2019-03-19T16:24:55.202Z,25.37
2019-03-19T16:27:24.370Z,57.73
2019-03-19T16:29:53.526Z,33.40
2019-03-19T16:32:22.760Z,34.47
2019-03-19T16:34:52.106Z,36.77
2019-03-19T16:37:21.329Z,23.00
2019-03-19T16:39:50.497Z,19.10
2019-03-19T16:42:19.738Z,12.20
2019-03-19T16:44:49.075Z,18.80
2019-03-19T16:47:18.310Z,15.43
2019-03-19T16:49:47.558Z,19.77
2019-03-19T16:52:16.719Z,26.37
2019-03-19T16:54:45.866Z,17.77
2019-03-19T16:57:15.178Z,17.70
2019-03-19T16:59:44.326Z,17.97
2019-03-19T17:02:13.473Z,16.23
2019-03-19T17:04:42.649Z,17.87
2019-03-19T17:07:11.801Z,23.13
2019-03-19T17:09:40.946Z,27.30
2019-03-19T17:12:10.126Z,26.23
2019-03-19T17:14:39.262Z,37.63
2019-03-19T17:17:08.500Z,30.53
2019-03-19T17:19:37.734Z,48.07
2019-03-19T17:22:06.899Z,34.90
2019-03-19T17:24:36.146Z,31.83
2019-03-19T17:27:05.318Z,33.73
2019-03-19T17:29:34.459Z,36.00
2019-03-19T17:32:12.406Z,34.33
2019-03-19T17:34:34.489Z,38.97
2019-03-19T17:37:03.663Z,42.10
2019-03-19T17:39:32.799Z,48.63
2019-03-19T17:42:02.348Z,80.23
2019-03-19T17:44:31.577Z,121.43
2019-03-19T17:47:00.788Z,77.03
2019-03-19T17:49:30.020Z,56.40
2019-03-19T17:51:59.259Z,57.17
2019-03-19T17:54:27.865Z,48.23
2019-03-19T17:56:57.022Z,48.03
2019-03-19T17:59:26.166Z,52.37
2019-03-19T18:01:55.433Z,54.53
2019-03-19T18:04:24.597Z,61.20
2019-03-19T18:06:53.830Z,55.70
2019-03-19T18:09:23.010Z,53.37
2019-03-19T18:11:52.258Z,43.40
2019-03-19T18:14:21.507Z,43.87
2019-03-19T18:16:50.699Z,35.13
2019-03-19T18:19:19.262Z,44.33
2019-03-19T18:21:48.418Z,60.47
2019-03-19T18:24:17.589Z,67.27
2019-03-19T18:26:47.119Z,63.60
2019-03-19T18:29:16.402Z,76.07
2019-03-19T18:31:45.645Z,62.53
2019-03-19T18:34:14.982Z,61.03
2019-03-19T18:36:44.142Z,57.97
2019-03-19T18:39:13.301Z,55.20
2019-03-19T18:41:42.560Z,64.70
2019-03-19T18:44:11.729Z,61.70
2019-03-19T18:46:40.871Z,54.67
2019-03-19T18:49:09.507Z,69.03
2019-03-19T18:51:38.687Z,54.23
2019-03-19T18:54:07.325Z,52.60
2019-03-19T18:56:35.886Z,64.03
2019-03-19T18:59:05.049Z,71.70
2019-03-19T19:01:34.229Z,71.37
2019-03-19T19:04:02.957Z,82.30
2019-03-19T19:06:32.177Z,69.93
2019-03-19T19:09:00.742Z,67.07
2019-03-19T19:11:29.969Z,81.93
2019-03-19T19:13:58.540Z,71.77
2019-03-19T19:16:27.169Z,77.33
2019-03-19T19:18:56.321Z,75.63
2019-03-19T19:21:25.457Z,86.73
2019-03-19T19:23:54.189Z,86.00
2019-03-19T19:26:23.462Z,93.37
2019-03-19T19:28:52.033Z,92.57
2019-03-19T19:31:20.598Z,107.17
2019-03-19T19:33:49.207Z,108.03
2019-03-19T19:36:18.521Z,89.10
2019-03-19T19:38:47.658Z,92.27
2019-03-19T19:41:16.917Z,105.60
2019-03-19T19:43:46.129Z,109.47
2019-03-19T19:46:15.285Z,102.67
2019-03-19T19:48:44.511Z,101.17
2019-03-19T19:51:13.657Z,94.23
2019-03-19T19:53:42.808Z,95.93
2019-03-19T19:56:11.974Z,98.83
2019-03-19T19:58:41.129Z,84.53
2019-03-19T20:01:10.291Z,108.23
2019-03-19T20:03:39.532Z,128.30
2019-03-19T20:06:08.685Z,121.93
2019-03-19T20:08:39.971Z,130.10
2019-03-19T20:11:09.212Z,121.67
2019-03-19T20:13:38.354Z,122.63
2019-03-19T20:16:07.525Z,128.63
2019-03-19T20:18:36.700Z,138.50
2019-03-19T20:21:05.879Z,133.00
2019-03-19T20:23:35.121Z,130.73
2019-03-19T20:26:04.314Z,134.53
2019-03-19T20:28:33.003Z,138.40
2019-03-19T20:31:02.142Z,133.00
2019-03-19T20:33:31.417Z,132.10
2019-03-19T20:36:00.564Z,143.50
2019-03-19T20:38:29.755Z,135.20
2019-03-19T20:40:58.994Z,143.23
2019-03-19T20:43:28.205Z,146.20
2019-03-19T20:45:57.362Z,144.63
2019-03-19T20:48:26.546Z,136.50
2019-03-19T20:50:55.618Z,149.43
2019-03-19T20:53:24.318Z,146.23
2019-03-19T20:55:53.631Z,141.10
2019-03-19T20:58:22.883Z,144.07
2019-03-19T21:00:52.098Z,161.47
2019-03-19T21:03:21.245Z,139.07
2019-03-19T21:05:50.414Z,137.83
2019-03-19T21:08:19.046Z,145.23
2019-03-19T21:10:48.245Z,176.87
2019-03-19T21:13:17.490Z,171.23
2019-03-19T21:15:46.670Z,182.17
2019-03-19T21:18:15.245Z,185.60
2019-03-19T21:20:44.394Z,185.53
2019-03-19T21:23:13.570Z,187.17
2019-03-19T21:25:42.714Z,183.13
2019-03-19T21:28:14.308Z,171.83
2019-03-19T21:30:42.753Z,165.73
2019-03-19T21:33:11.906Z,171.50
2019-03-19T21:35:41.081Z,171.57
2019-03-19T21:38:09.717Z,188.33
2019-03-19T21:40:38.882Z,189.10
2019-03-19T21:43:07.614Z,173.63
2019-03-19T21:45:36.854Z,182.60
2019-03-19T21:48:05.473Z,181.20
2019-03-19T21:50:34.678Z,180.90
2019-03-19T21:53:03.880Z,219.90
2019-03-19T21:55:33.102Z,199.27
2019-03-19T21:58:01.761Z,197.13
2019-03-19T22:00:30.439Z,190.50
2019-03-19T22:02:59.018Z,171.67
2019-03-19T22:05:28.205Z,171.13
2019-03-19T22:07:57.463Z,196.57
2019-03-19T22:10:26.609Z,198.87
2019-03-19T22:12:55.802Z,225.87
2019-03-19T22:15:24.994Z,236.23
2019-03-19T22:17:54.144Z,213.30
2019-03-19T22:20:23.530Z,196.37
2019-03-19T22:22:52.754Z,174.13
2019-03-19T22:25:21.904Z,199.33
2019-03-19T22:27:51.065Z,204.50
2019-03-19T22:30:19.740Z,196.57
2019-03-19T22:32:48.919Z,240.40
2019-03-19T22:35:18.241Z,303.63
2019-03-19T22:37:47.637Z,347.23
2019-03-19T22:40:16.890Z,305.70
2019-03-19T22:42:46.106Z,271.80
2019-03-19T22:45:15.562Z,233.27
2019-03-19T22:47:44.770Z,212.53
2019-03-19T22:50:14.487Z,201.73
2019-03-19T22:52:43.629Z,214.00
2019-03-19T22:55:12.833Z,223.17
2019-03-19T22:57:42.023Z,224.03
2019-03-19T23:00:16.221Z,241.10
2019-03-19T23:02:45.514Z,322.90
2019-03-19T23:05:15.598Z,267.23
2019-03-19T23:07:44.744Z,308.30
2019-03-19T23:10:13.909Z,284.13
2019-03-19T23:12:43.142Z,259.67
2019-03-19T23:15:12.373Z,270.87
2019-03-19T23:17:41.731Z,273.63
2019-03-19T23:20:11.378Z,283.90
2019-03-19T23:22:40.650Z,259.67
2019-03-19T23:25:10.311Z,275.00
2019-03-19T23:27:39.517Z,276.40
2019-03-19T23:30:08.710Z,275.40
2019-03-19T23:32:37.875Z,270.53
2019-03-19T23:35:07.271Z,288.60
2019-03-19T23:37:36.497Z,285.67
2019-03-19T23:40:06.425Z,244.37
2019-03-19T23:42:35.603Z,250.30
2019-03-19T23:45:05.535Z,218.53
2019-03-19T23:47:34.686Z,197.97
2019-03-19T23:50:04.172Z,195.00
2019-03-19T23:52:33.413Z,180.03
2019-03-19T23:55:02.579Z,165.83
2019-03-19T23:57:31.845Z,147.10
